Aominesanmaru No.12 — JH3332 — position and weather

sailwx.info

Track history (hours):
 
Tides and Currents Weather Stations Pressure Air Temp Water Temp Dewpoint Dewpoint Depression Visibility Wind Speed Wind Dir Waves Ship Positions

Aominesanmaru No.12

Last reported at 2018-Jun-22 02:03 UTC. Time now 2018-Jun-22 05:40 UTC.
Position N 35°24' E 139°42'.

Length 60 m.

Type: Tanker. MMSI: 431008217.

Date/timePositionNaut miles runAvg speedWind from/ knotsBaromVisibWave heightAir tempDewpointWater temp
2018-Jun-22 02:03N 35°24' E 139°42'3 0.9
2018-Jun-21 22:56N 35°24' E 139°39'3 7.0
2018-Jun-21 22:30N 35°26' E 139°42'4 0.3
2018-Jun-21 08:50N 35°29' E 139°43'6 1.5
2018-Jun-21 04:54N 35°24' E 139°40'1 0.4
2018-Jun-21 02:00N 35°25' E 139°39'3 0.1
2018-Jun-20 02:14N 35°25' E 139°42'4 2.3
2018-Jun-20 00:40N 35°24' E 139°38'0 0.1
2018-Jun-19 23:05N 35°24' E 139°38'1 3.8
2018-Jun-19 22:57N 35°25' E 139°39'4 7.4
2018-Jun-19 22:26N 35°27' E 139°42'4 0.2
2018-Jun-18 23:25N 35°24' E 139°38'1 2.3
2018-Jun-18 22:49N 35°24' E 139°40'1 0.0
2018-Jun-18 04:37N 35°24' E 139°39'1 5.7
2018-Jun-18 04:27N 35°24' E 139°38'0 0.0
2018-Jun-18 03:36N 35°24' E 139°38'0 0.0
2018-Jun-18 02:12N 35°24' E 139°38'0 0.0
2018-Jun-18 01:47N 35°24' E 139°38'1 0.4
2018-Jun-17 23:48N 35°24' E 139°39'0 0.5
2018-Jun-17 23:28N 35°24' E 139°39'  
2018-Jun-15 04:49N 35°23' E 139°41'2 2.1
2018-Jun-15 03:44N 35°24' E 139°38'0 0.0
2018-Jun-15 01:56N 35°24' E 139°38'0 0.0
2018-Jun-14 23:53N 35°24' E 139°38'0 0.0
2018-Jun-14 23:26N 35°24' E 139°38'1 2.1
2018-Jun-14 22:46N 35°24' E 139°40'5 0.4
2018-Jun-14 08:16N 35°29' E 139°42'0 1.3
2018-Jun-14 07:59N 35°29' E 139°41'1 2.0
2018-Jun-14 07:30N 35°28' E 139°40'0 0.0
2018-Jun-14 06:45N 35°28' E 139°40'0 0.5
2018-Jun-14 06:07N 35°28' E 139°40'4 0.2
2018-Jun-13 05:41N 35°24' E 139°40'2 0.9
2018-Jun-13 03:51N 35°24' E 139°38'1 0.8
2018-Jun-13 02:12N 35°24' E 139°39'2 6.7
2018-Jun-13 01:57N 35°24' E 139°41'5 8.2
2018-Jun-13 01:19N 35°29' E 139°42'0 0.0
2018-Jun-13 00:52N 35°29' E 139°42'0 0.0
2018-Jun-12 04:51N 35°29' E 139°42'  
Track history (hours):
 
Tides and Currents Weather Stations Pressure Air Temp Water Temp Dewpoint Dewpoint Depression Visibility Wind Speed Wind Dir Waves Ship Positions

Aominesanmaru No.12

Last reported at 2018-Jun-22 02:03 UTC. Time now 2018-Jun-22 05:40 UTC.
Position N 35°24' E 139°42'.

Length 60 m.

Type: Tanker. MMSI: 431008217.

Date/timePositionNaut miles runAvg speedWind from/ knotsBaromVisibWave heightAir tempDewpointWater temp
2018-Jun-22 02:03N 35°24' E 139°42'3 0.9
2018-Jun-21 22:56N 35°24' E 139°39'3 7.0
2018-Jun-21 22:30N 35°26' E 139°42'4 0.3
2018-Jun-21 08:50N 35°29' E 139°43'6 1.5
2018-Jun-21 04:54N 35°24' E 139°40'1 0.4
2018-Jun-21 02:00N 35°25' E 139°39'3 0.1
2018-Jun-20 02:14N 35°25' E 139°42'4 2.3
2018-Jun-20 00:40N 35°24' E 139°38'0 0.1
2018-Jun-19 23:05N 35°24' E 139°38'1 3.8
2018-Jun-19 22:57N 35°25' E 139°39'4 7.4
2018-Jun-19 22:26N 35°27' E 139°42'4 0.2
2018-Jun-18 23:25N 35°24' E 139°38'1 2.3
2018-Jun-18 22:49N 35°24' E 139°40'1 0.0
2018-Jun-18 04:37N 35°24' E 139°39'1 5.7
2018-Jun-18 04:27N 35°24' E 139°38'0 0.0
2018-Jun-18 03:36N 35°24' E 139°38'0 0.0
2018-Jun-18 02:12N 35°24' E 139°38'0 0.0
2018-Jun-18 01:47N 35°24' E 139°38'1 0.4
2018-Jun-17 23:48N 35°24' E 139°39'0 0.5
2018-Jun-17 23:28N 35°24' E 139°39'  
2018-Jun-15 04:49N 35°23' E 139°41'2 2.1
2018-Jun-15 03:44N 35°24' E 139°38'0 0.0
2018-Jun-15 01:56N 35°24' E 139°38'0 0.0
2018-Jun-14 23:53N 35°24' E 139°38'0 0.0
2018-Jun-14 23:26N 35°24' E 139°38'1 2.1
2018-Jun-14 22:46N 35°24' E 139°40'5 0.4
2018-Jun-14 08:16N 35°29' E 139°42'0 1.3
2018-Jun-14 07:59N 35°29' E 139°41'1 2.0
2018-Jun-14 07:30N 35°28' E 139°40'0 0.0
2018-Jun-14 06:45N 35°28' E 139°40'0 0.5
2018-Jun-14 06:07N 35°28' E 139°40'4 0.2
2018-Jun-13 05:41N 35°24' E 139°40'2 0.9
2018-Jun-13 03:51N 35°24' E 139°38'1 0.8
2018-Jun-13 02:12N 35°24' E 139°39'2 6.7
2018-Jun-13 01:57N 35°24' E 139°41'5 8.2
2018-Jun-13 01:19N 35°29' E 139°42'0 0.0
2018-Jun-13 00:52N 35°29' E 139°42'0 0.0
2018-Jun-12 04:51N 35°29' E 139°42'  

Dump ship's entire track history